sensor_id;sensor_type;location;lat;lon;timestamp;P1;durP1;ratioP1;P2;durP2;ratioP2
25922;SDS011;13725;51.170;4.442;2022-10-31T00:01:36;18.60;;;10.32;;
25922;SDS011;13725;51.170;4.442;2022-10-31T00:04:03;22.98;;;10.98;;
25922;SDS011;13725;51.170;4.442;2022-10-31T00:06:29;18.67;;;10.80;;
25922;SDS011;13725;51.170;4.442;2022-10-31T00:08:56;23.33;;;11.00;;
25922;SDS011;13725;51.170;4.442;2022-10-31T00:11:26;23.92;;;10.82;;
25922;SDS011;13725;51.170;4.442;2022-10-31T00:13:52;22.42;;;10.27;;
25922;SDS011;13725;51.170;4.442;2022-10-31T00:16:19;16.10;;;10.18;;
25922;SDS011;13725;51.170;4.442;2022-10-31T00:18:50;20.30;;;10.52;;
25922;SDS011;13725;51.170;4.442;2022-10-31T00:21:16;26.90;;;11.95;;
25922;SDS011;13725;51.170;4.442;2022-10-31T00:23:42;20.02;;;10.60;;
25922;SDS011;13725;51.170;4.442;2022-10-31T00:26:08;21.30;;;9.85;;
25922;SDS011;13725;51.170;4.442;2022-10-31T00:28:33;19.08;;;9.98;;
25922;SDS011;13725;51.170;4.442;2022-10-31T00:31:03;18.15;;;9.20;;
25922;SDS011;13725;51.170;4.442;2022-10-31T00:33:35;20.70;;;9.63;;
25922;SDS011;13725;51.170;4.442;2022-10-31T00:36:03;19.25;;;10.25;;
25922;SDS011;13725;51.170;4.442;2022-10-31T00:38:29;17.98;;;9.65;;
25922;SDS011;13725;51.170;4.442;2022-10-31T00:40:55;20.70;;;9.90;;
25922;SDS011;13725;51.170;4.442;2022-10-31T00:43:21;16.17;;;9.07;;
25922;SDS011;13725;51.170;4.442;2022-10-31T00:45:47;16.83;;;9.05;;
25922;SDS011;13725;51.170;4.442;2022-10-31T00:48:13;17.67;;;10.23;;
25922;SDS011;13725;51.170;4.442;2022-10-31T00:50:38;21.10;;;9.85;;
25922;SDS011;13725;51.170;4.442;2022-10-31T00:53:05;18.70;;;9.27;;
25922;SDS011;13725;51.170;4.442;2022-10-31T00:55:32;20.60;;;9.77;;
25922;SDS011;13725;51.170;4.442;2022-10-31T00:57:59;14.82;;;9.40;;
25922;SDS011;13725;51.170;4.442;2022-10-31T01:00:25;13.45;;;8.60;;
25922;SDS011;13725;51.170;4.442;2022-10-31T01:02:52;19.95;;;9.75;;
25922;SDS011;13725;51.170;4.442;2022-10-31T01:05:18;22.23;;;9.13;;
25922;SDS011;13725;51.170;4.442;2022-10-31T01:07:47;20.17;;;8.70;;
25922;SDS011;13725;51.170;4.442;2022-10-31T01:10:14;19.38;;;9.63;;
25922;SDS011;13725;51.170;4.442;2022-10-31T01:12:43;17.50;;;10.20;;
25922;SDS011;13725;51.170;4.442;2022-10-31T01:15:10;22.25;;;10.25;;
25922;SDS011;13725;51.170;4.442;2022-10-31T01:17:37;19.05;;;10.35;;
25922;SDS011;13725;51.170;4.442;2022-10-31T01:20:05;20.92;;;10.73;;
25922;SDS011;13725;51.170;4.442;2022-10-31T01:22:32;19.00;;;10.35;;
25922;SDS011;13725;51.170;4.442;2022-10-31T01:24:59;17.35;;;10.40;;
25922;SDS011;13725;51.170;4.442;2022-10-31T01:27:25;27.35;;;10.70;;
25922;SDS011;13725;51.170;4.442;2022-10-31T01:29:51;18.92;;;10.23;;
25922;SDS011;13725;51.170;4.442;2022-10-31T01:32:17;22.25;;;10.80;;
25922;SDS011;13725;51.170;4.442;2022-10-31T01:34:44;17.48;;;10.45;;
25922;SDS011;13725;51.170;4.442;2022-10-31T01:37:12;20.58;;;10.98;;
25922;SDS011;13725;51.170;4.442;2022-10-31T01:39:37;18.38;;;9.50;;
25922;SDS011;13725;51.170;4.442;2022-10-31T01:42:03;20.73;;;10.05;;
25922;SDS011;13725;51.170;4.442;2022-10-31T01:47:08;16.90;;;9.90;;
25922;SDS011;13725;51.170;4.442;2022-10-31T01:49:52;20.95;;;10.93;;
25922;SDS011;13725;51.170;4.442;2022-10-31T01:52:23;22.58;;;10.20;;
25922;SDS011;13725;51.170;4.442;2022-10-31T01:55:14;21.00;;;9.88;;
25922;SDS011;13725;51.170;4.442;2022-10-31T01:57:45;22.20;;;11.02;;
25922;SDS011;13725;51.170;4.442;2022-10-31T02:00:16;19.83;;;10.00;;
25922;SDS011;13725;51.170;4.442;2022-10-31T02:02:44;23.65;;;10.45;;
25922;SDS011;13725;51.170;4.442;2022-10-31T02:05:19;20.35;;;10.93;;
25922;SDS011;13725;51.170;4.442;2022-10-31T02:10:33;20.10;;;10.60;;
25922;SDS011;13725;51.170;4.442;2022-10-31T02:13:03;18.63;;;10.45;;
25922;SDS011;13725;51.170;4.442;2022-10-31T02:15:31;17.38;;;9.57;;
25922;SDS011;13725;51.170;4.442;2022-10-31T02:17:58;21.15;;;11.00;;
25922;SDS011;13725;51.170;4.442;2022-10-31T02:20:25;21.95;;;10.57;;
25922;SDS011;13725;51.170;4.442;2022-10-31T02:28:33;19.80;;;12.07;;
25922;SDS011;13725;51.170;4.442;2022-10-31T02:37:11;20.33;;;11.25;;
25922;SDS011;13725;51.170;4.442;2022-10-31T02:39:56;21.55;;;11.23;;
25922;SDS011;13725;51.170;4.442;2022-10-31T02:43:08;24.08;;;12.23;;
25922;SDS011;13725;51.170;4.442;2022-10-31T02:45:55;21.65;;;11.23;;
25922;SDS011;13725;51.170;4.442;2022-10-31T02:48:28;20.45;;;10.95;;
25922;SDS011;13725;51.170;4.442;2022-10-31T02:50:59;23.02;;;11.10;;
25922;SDS011;13725;51.170;4.442;2022-10-31T02:53:31;23.20;;;11.63;;
25922;SDS011;13725;51.170;4.442;2022-10-31T02:56:19;19.90;;;11.30;;
25922;SDS011;13725;51.170;4.442;2022-10-31T02:58:46;16.67;;;11.13;;
25922;SDS011;13725;51.170;4.442;2022-10-31T03:04:11;24.10;;;11.40;;
25922;SDS011;13725;51.170;4.442;2022-10-31T03:06:54;21.67;;;10.77;;
25922;SDS011;13725;51.170;4.442;2022-10-31T03:14:40;19.33;;;11.13;;
25922;SDS011;13725;51.170;4.442;2022-10-31T03:17:16;23.77;;;11.07;;
25922;SDS011;13725;51.170;4.442;2022-10-31T03:19:49;19.27;;;11.30;;
25922;SDS011;13725;51.170;4.442;2022-10-31T03:22:20;21.25;;;11.50;;
25922;SDS011;13725;51.170;4.442;2022-10-31T03:24:49;21.85;;;11.07;;
25922;SDS011;13725;51.170;4.442;2022-10-31T03:27:20;20.55;;;11.05;;
25922;SDS011;13725;51.170;4.442;2022-10-31T03:29:50;24.85;;;11.52;;
25922;SDS011;13725;51.170;4.442;2022-10-31T03:32:26;25.25;;;11.00;;
25922;SDS011;13725;51.170;4.442;2022-10-31T03:34:58;19.65;;;10.90;;
25922;SDS011;13725;51.170;4.442;2022-10-31T03:37:26;21.48;;;11.40;;
25922;SDS011;13725;51.170;4.442;2022-10-31T03:39:54;26.77;;;10.93;;
25922;SDS011;13725;51.170;4.442;2022-10-31T03:42:24;21.15;;;11.10;;
25922;SDS011;13725;51.170;4.442;2022-10-31T03:47:42;23.08;;;11.27;;
25922;SDS011;13725;51.170;4.442;2022-10-31T03:50:09;20.27;;;11.02;;
25922;SDS011;13725;51.170;4.442;2022-10-31T03:52:42;24.42;;;12.02;;
25922;SDS011;13725;51.170;4.442;2022-10-31T03:55:10;20.52;;;11.23;;
25922;SDS011;13725;51.170;4.442;2022-10-31T04:00:18;17.70;;;9.88;;
25922;SDS011;13725;51.170;4.442;2022-10-31T04:02:55;20.65;;;11.43;;
25922;SDS011;13725;51.170;4.442;2022-10-31T04:05:29;22.67;;;11.02;;
25922;SDS011;13725;51.170;4.442;2022-10-31T04:07:59;17.35;;;9.65;;
25922;SDS011;13725;51.170;4.442;2022-10-31T04:10:27;22.63;;;10.07;;
25922;SDS011;13725;51.170;4.442;2022-10-31T04:12:58;20.05;;;10.23;;
25922;SDS011;13725;51.170;4.442;2022-10-31T04:15:35;19.08;;;9.93;;
25922;SDS011;13725;51.170;4.442;2022-10-31T04:18:06;20.23;;;10.65;;
25922;SDS011;13725;51.170;4.442;2022-10-31T04:20:37;21.08;;;10.85;;
25922;SDS011;13725;51.170;4.442;2022-10-31T04:23:15;18.70;;;10.70;;
25922;SDS011;13725;51.170;4.442;2022-10-31T04:25:44;17.88;;;10.52;;
25922;SDS011;13725;51.170;4.442;2022-10-31T04:28:11;19.73;;;9.88;;
25922;SDS011;13725;51.170;4.442;2022-10-31T04:30:36;19.85;;;9.27;;
25922;SDS011;13725;51.170;4.442;2022-10-31T04:33:02;22.08;;;11.45;;
25922;SDS011;13725;51.170;4.442;2022-10-31T04:35:28;21.00;;;10.27;;
25922;SDS011;13725;51.170;4.442;2022-10-31T04:37:54;18.50;;;10.55;;
25922;SDS011;13725;51.170;4.442;2022-10-31T04:40:19;18.88;;;9.75;;
25922;SDS011;13725;51.170;4.442;2022-10-31T04:43:04;21.05;;;10.73;;
25922;SDS011;13725;51.170;4.442;2022-10-31T04:45:29;19.63;;;9.85;;
25922;SDS011;13725;51.170;4.442;2022-10-31T04:47:55;19.70;;;11.02;;
25922;SDS011;13725;51.170;4.442;2022-10-31T04:50:22;17.58;;;10.05;;
25922;SDS011;13725;51.170;4.442;2022-10-31T04:52:48;21.92;;;10.75;;
25922;SDS011;13725;51.170;4.442;2022-10-31T04:55:16;21.25;;;10.05;;
25922;SDS011;13725;51.170;4.442;2022-10-31T04:58:00;20.10;;;10.75;;
25922;SDS011;13725;51.170;4.442;2022-10-31T05:00:26;20.05;;;10.57;;
25922;SDS011;13725;51.170;4.442;2022-10-31T05:02:55;18.15;;;9.95;;
25922;SDS011;13725;51.170;4.442;2022-10-31T05:05:27;22.35;;;10.32;;
25922;SDS011;13725;51.170;4.442;2022-10-31T05:07:54;17.05;;;10.25;;
25922;SDS011;13725;51.170;4.442;2022-10-31T05:10:24;18.85;;;10.63;;
25922;SDS011;13725;51.170;4.442;2022-10-31T05:12:52;20.23;;;10.98;;
25922;SDS011;13725;51.170;4.442;2022-10-31T05:15:38;21.40;;;11.10;;
25922;SDS011;13725;51.170;4.442;2022-10-31T05:18:22;22.48;;;11.57;;
25922;SDS011;13725;51.170;4.442;2022-10-31T05:21:14;25.38;;;12.80;;
25922;SDS011;13725;51.170;4.442;2022-10-31T05:23:47;17.50;;;10.68;;
25922;SDS011;13725;51.170;4.442;2022-10-31T05:26:13;21.95;;;11.27;;
25922;SDS011;13725;51.170;4.442;2022-10-31T05:28:39;20.92;;;11.52;;
25922;SDS011;13725;51.170;4.442;2022-10-31T05:31:05;24.00;;;11.63;;
25922;SDS011;13725;51.170;4.442;2022-10-31T05:33:32;20.35;;;11.38;;
25922;SDS011;13725;51.170;4.442;2022-10-31T05:36:16;24.65;;;11.43;;
25922;SDS011;13725;51.170;4.442;2022-10-31T05:38:50;20.08;;;11.40;;
25922;SDS011;13725;51.170;4.442;2022-10-31T05:41:23;23.02;;;10.73;;
25922;SDS011;13725;51.170;4.442;2022-10-31T05:43:49;18.42;;;11.02;;
25922;SDS011;13725;51.170;4.442;2022-10-31T05:46:19;25.85;;;13.18;;
25922;SDS011;13725;51.170;4.442;2022-10-31T05:49:24;20.35;;;11.00;;
25922;SDS011;13725;51.170;4.442;2022-10-31T05:52:08;24.90;;;11.98;;
25922;SDS011;13725;51.170;4.442;2022-10-31T05:54:49;21.40;;;10.43;;
25922;SDS011;13725;51.170;4.442;2022-10-31T05:57:15;22.02;;;11.52;;
25922;SDS011;13725;51.170;4.442;2022-10-31T05:59:41;22.20;;;11.25;;
25922;SDS011;13725;51.170;4.442;2022-10-31T06:02:06;21.23;;;11.90;;
25922;SDS011;13725;51.170;4.442;2022-10-31T06:04:51;22.73;;;11.02;;
25922;SDS011;13725;51.170;4.442;2022-10-31T06:07:17;21.80;;;11.25;;
25922;SDS011;13725;51.170;4.442;2022-10-31T06:09:43;23.05;;;12.23;;
25922;SDS011;13725;51.170;4.442;2022-10-31T06:12:10;24.50;;;11.68;;
25922;SDS011;13725;51.170;4.442;2022-10-31T06:14:55;20.27;;;10.40;;
25922;SDS011;13725;51.170;4.442;2022-10-31T06:17:22;25.05;;;11.73;;
25922;SDS011;13725;51.170;4.442;2022-10-31T06:20:00;25.77;;;13.10;;
25922;SDS011;13725;51.170;4.442;2022-10-31T06:22:29;26.05;;;13.38;;
25922;SDS011;13725;51.170;4.442;2022-10-31T06:24:56;26.90;;;13.77;;
25922;SDS011;13725;51.170;4.442;2022-10-31T06:27:32;27.85;;;13.63;;
25922;SDS011;13725;51.170;4.442;2022-10-31T06:30:04;26.35;;;13.73;;
25922;SDS011;13725;51.170;4.442;2022-10-31T06:32:33;24.73;;;13.85;;
25922;SDS011;13725;51.170;4.442;2022-10-31T06:34:59;29.33;;;14.82;;
25922;SDS011;13725;51.170;4.442;2022-10-31T06:37:25;26.55;;;14.70;;
25922;SDS011;13725;51.170;4.442;2022-10-31T06:39:53;26.30;;;14.45;;
25922;SDS011;13725;51.170;4.442;2022-10-31T06:42:19;32.67;;;14.43;;
25922;SDS011;13725;51.170;4.442;2022-10-31T06:44:45;37.53;;;16.45;;
25922;SDS011;13725;51.170;4.442;2022-10-31T06:47:29;31.88;;;14.40;;
25922;SDS011;13725;51.170;4.442;2022-10-31T06:49:59;31.25;;;14.20;;
25922;SDS011;13725;51.170;4.442;2022-10-31T06:52:25;29.77;;;14.55;;
25922;SDS011;13725;51.170;4.442;2022-10-31T06:54:51;33.13;;;15.05;;
25922;SDS011;13725;51.170;4.442;2022-10-31T06:57:18;32.05;;;14.98;;
25922;SDS011;13725;51.170;4.442;2022-10-31T06:59:44;28.30;;;15.15;;
25922;SDS011;13725;51.170;4.442;2022-10-31T07:02:28;33.88;;;14.85;;
25922;SDS011;13725;51.170;4.442;2022-10-31T07:04:55;32.03;;;15.88;;
25922;SDS011;13725;51.170;4.442;2022-10-31T07:07:21;30.63;;;15.15;;
25922;SDS011;13725;51.170;4.442;2022-10-31T07:09:49;27.67;;;14.68;;
25922;SDS011;13725;51.170;4.442;2022-10-31T07:12:17;23.65;;;13.82;;
25922;SDS011;13725;51.170;4.442;2022-10-31T07:14:52;25.25;;;14.82;;
25922;SDS011;13725;51.170;4.442;2022-10-31T07:17:19;26.58;;;14.98;;
25922;SDS011;13725;51.170;4.442;2022-10-31T07:22:17;30.35;;;14.50;;
25922;SDS011;13725;51.170;4.442;2022-10-31T07:24:44;32.55;;;15.15;;
25922;SDS011;13725;51.170;4.442;2022-10-31T07:27:45;22.30;;;13.45;;
25922;SDS011;13725;51.170;4.442;2022-10-31T07:30:12;28.98;;;14.63;;
25922;SDS011;13725;51.170;4.442;2022-10-31T07:35:06;27.00;;;13.98;;
25922;SDS011;13725;51.170;4.442;2022-10-31T07:37:45;23.98;;;13.20;;
25922;SDS011;13725;51.170;4.442;2022-10-31T07:40:11;25.55;;;14.05;;
25922;SDS011;13725;51.170;4.442;2022-10-31T07:42:38;58.65;;;18.00;;
25922;SDS011;13725;51.170;4.442;2022-10-31T07:45:28;27.42;;;12.68;;
25922;SDS011;13725;51.170;4.442;2022-10-31T07:48:25;27.55;;;12.73;;
25922;SDS011;13725;51.170;4.442;2022-10-31T07:51:09;32.38;;;13.32;;
25922;SDS011;13725;51.170;4.442;2022-10-31T07:54:10;65.15;;;16.63;;
25922;SDS011;13725;51.170;4.442;2022-10-31T07:56:37;31.95;;;13.68;;
25922;SDS011;13725;51.170;4.442;2022-10-31T07:59:02;24.88;;;12.02;;
25922;SDS011;13725;51.170;4.442;2022-10-31T08:01:28;20.63;;;11.60;;
25922;SDS011;13725;51.170;4.442;2022-10-31T08:04:14;23.17;;;12.02;;
25922;SDS011;13725;51.170;4.442;2022-10-31T08:06:58;18.80;;;11.32;;
25922;SDS011;13725;51.170;4.442;2022-10-31T08:09:29;31.08;;;12.80;;
25922;SDS011;13725;51.170;4.442;2022-10-31T08:11:58;24.60;;;13.93;;
25922;SDS011;13725;51.170;4.442;2022-10-31T08:14:24;24.48;;;13.57;;
25922;SDS011;13725;51.170;4.442;2022-10-31T08:16:51;25.23;;;12.90;;
25922;SDS011;13725;51.170;4.442;2022-10-31T08:19:18;24.95;;;13.00;;
25922;SDS011;13725;51.170;4.442;2022-10-31T08:21:43;28.27;;;13.85;;
25922;SDS011;13725;51.170;4.442;2022-10-31T08:24:10;26.85;;;14.13;;
25922;SDS011;13725;51.170;4.442;2022-10-31T08:26:36;22.50;;;13.43;;
25922;SDS011;13725;51.170;4.442;2022-10-31T08:29:05;27.48;;;13.80;;
25922;SDS011;13725;51.170;4.442;2022-10-31T08:31:33;60.42;;;17.38;;
25922;SDS011;13725;51.170;4.442;2022-10-31T08:34:17;33.75;;;14.85;;
25922;SDS011;13725;51.170;4.442;2022-10-31T08:37:17;29.38;;;12.63;;
25922;SDS011;13725;51.170;4.442;2022-10-31T08:39:50;321.13;;;35.88;;
25922;SDS011;13725;51.170;4.442;2022-10-31T08:42:15;41.38;;;15.20;;
25922;SDS011;13725;51.170;4.442;2022-10-31T08:44:41;25.92;;;13.07;;
25922;SDS011;13725;51.170;4.442;2022-10-31T08:47:07;77.05;;;18.60;;
25922;SDS011;13725;51.170;4.442;2022-10-31T08:49:33;68.35;;;17.75;;
25922;SDS011;13725;51.170;4.442;2022-10-31T08:51:59;47.33;;;16.40;;
25922;SDS011;13725;51.170;4.442;2022-10-31T08:54:30;42.65;;;14.38;;
25922;SDS011;13725;51.170;4.442;2022-10-31T08:56:56;43.83;;;16.10;;
25922;SDS011;13725;51.170;4.442;2022-10-31T08:59:32;28.75;;;17.00;;
25922;SDS011;13725;51.170;4.442;2022-10-31T09:02:18;27.02;;;15.15;;
25922;SDS011;13725;51.170;4.442;2022-10-31T09:04:44;30.60;;;14.75;;
25922;SDS011;13725;51.170;4.442;2022-10-31T09:07:09;26.13;;;14.23;;
25922;SDS011;13725;51.170;4.442;2022-10-31T09:09:36;26.70;;;13.85;;
25922;SDS011;13725;51.170;4.442;2022-10-31T09:12:01;33.58;;;15.05;;
25922;SDS011;13725;51.170;4.442;2022-10-31T09:15:05;31.80;;;14.50;;
25922;SDS011;13725;51.170;4.442;2022-10-31T09:17:39;29.02;;;15.10;;
25922;SDS011;13725;51.170;4.442;2022-10-31T09:20:27;32.33;;;17.40;;
25922;SDS011;13725;51.170;4.442;2022-10-31T09:22:57;28.90;;;15.95;;
25922;SDS011;13725;51.170;4.442;2022-10-31T09:25:30;29.77;;;15.10;;
25922;SDS011;13725;51.170;4.442;2022-10-31T09:28:21;28.30;;;15.75;;
25922;SDS011;13725;51.170;4.442;2022-10-31T09:30:48;28.02;;;15.15;;
25922;SDS011;13725;51.170;4.442;2022-10-31T09:33:25;28.48;;;15.93;;
25922;SDS011;13725;51.170;4.442;2022-10-31T09:36:10;28.58;;;15.43;;
25922;SDS011;13725;51.170;4.442;2022-10-31T09:38:39;33.67;;;16.90;;
25922;SDS011;13725;51.170;4.442;2022-10-31T09:52:00;31.50;;;17.42;;
25922;SDS011;13725;51.170;4.442;2022-10-31T09:54:32;37.63;;;20.42;;
25922;SDS011;13725;51.170;4.442;2022-10-31T09:57:01;157.75;;;29.55;;
25922;SDS011;13725;51.170;4.442;2022-10-31T09:59:30;33.05;;;18.10;;
25922;SDS011;13725;51.170;4.442;2022-10-31T10:02:00;38.35;;;18.23;;
25922;SDS011;13725;51.170;4.442;2022-10-31T10:07:32;34.90;;;17.35;;
25922;SDS011;13725;51.170;4.442;2022-10-31T10:10:37;34.55;;;17.27;;
25922;SDS011;13725;51.170;4.442;2022-10-31T10:17:02;29.88;;;17.40;;
25922;SDS011;13725;51.170;4.442;2022-10-31T10:20:23;31.05;;;17.10;;
25922;SDS011;13725;51.170;4.442;2022-10-31T10:25:28;32.13;;;17.33;;
25922;SDS011;13725;51.170;4.442;2022-10-31T10:31:23;31.92;;;16.75;;
25922;SDS011;13725;51.170;4.442;2022-10-31T10:34:06;33.33;;;17.05;;
25922;SDS011;13725;51.170;4.442;2022-10-31T10:37:00;28.83;;;16.15;;
25922;SDS011;13725;51.170;4.442;2022-10-31T10:39:54;39.97;;;16.63;;
25922;SDS011;13725;51.170;4.442;2022-10-31T10:42:25;31.13;;;16.48;;
25922;SDS011;13725;51.170;4.442;2022-10-31T10:45:15;30.70;;;16.17;;
25922;SDS011;13725;51.170;4.442;2022-10-31T10:50:59;29.70;;;15.98;;
25922;SDS011;13725;51.170;4.442;2022-10-31T10:59:22;29.20;;;16.50;;
25922;SDS011;13725;51.170;4.442;2022-10-31T11:01:48;30.73;;;17.40;;
25922;SDS011;13725;51.170;4.442;2022-10-31T11:04:23;29.58;;;15.95;;
25922;SDS011;13725;51.170;4.442;2022-10-31T11:06:58;37.95;;;17.23;;
25922;SDS011;13725;51.170;4.442;2022-10-31T11:09:24;34.60;;;16.85;;
25922;SDS011;13725;51.170;4.442;2022-10-31T11:11:50;36.65;;;17.50;;
25922;SDS011;13725;51.170;4.442;2022-10-31T11:14:16;36.35;;;18.35;;
25922;SDS011;13725;51.170;4.442;2022-10-31T11:16:43;32.03;;;17.42;;
25922;SDS011;13725;51.170;4.442;2022-10-31T11:21:45;38.40;;;18.13;;
25922;SDS011;13725;51.170;4.442;2022-10-31T11:24:20;39.45;;;19.25;;
25922;SDS011;13725;51.170;4.442;2022-10-31T11:26:48;35.83;;;18.52;;
25922;SDS011;13725;51.170;4.442;2022-10-31T11:29:16;35.95;;;19.73;;
25922;SDS011;13725;51.170;4.442;2022-10-31T11:31:47;36.28;;;18.45;;
25922;SDS011;13725;51.170;4.442;2022-10-31T11:34:33;37.63;;;19.08;;
25922;SDS011;13725;51.170;4.442;2022-10-31T11:37:10;33.55;;;18.15;;
25922;SDS011;13725;51.170;4.442;2022-10-31T11:39:43;32.63;;;18.15;;
25922;SDS011;13725;51.170;4.442;2022-10-31T11:42:18;34.53;;;17.33;;
25922;SDS011;13725;51.170;4.442;2022-10-31T11:44:46;39.28;;;18.15;;
25922;SDS011;13725;51.170;4.442;2022-10-31T11:47:13;34.30;;;18.17;;
25922;SDS011;13725;51.170;4.442;2022-10-31T11:49:42;37.88;;;18.80;;
25922;SDS011;13725;51.170;4.442;2022-10-31T11:52:20;35.72;;;17.95;;
25922;SDS011;13725;51.170;4.442;2022-10-31T11:54:54;29.92;;;17.13;;
25922;SDS011;13725;51.170;4.442;2022-10-31T11:59:56;36.67;;;17.45;;
25922;SDS011;13725;51.170;4.442;2022-10-31T12:02:23;32.72;;;16.95;;
25922;SDS011;13725;51.170;4.442;2022-10-31T12:07:36;36.25;;;17.10;;
25922;SDS011;13725;51.170;4.442;2022-10-31T12:10:05;33.15;;;18.10;;
25922;SDS011;13725;51.170;4.442;2022-10-31T12:23:58;38.33;;;18.30;;
25922;SDS011;13725;51.170;4.442;2022-10-31T12:31:41;35.38;;;18.30;;
25922;SDS011;13725;51.170;4.442;2022-10-31T12:37:42;38.50;;;20.65;;
25922;SDS011;13725;51.170;4.442;2022-10-31T12:43:44;38.50;;;19.40;;
25922;SDS011;13725;51.170;4.442;2022-10-31T12:49:26;39.90;;;19.20;;
25922;SDS011;13725;51.170;4.442;2022-10-31T12:52:19;33.38;;;19.58;;
25922;SDS011;13725;51.170;4.442;2022-10-31T12:55:10;41.63;;;20.00;;
25922;SDS011;13725;51.170;4.442;2022-10-31T12:57:52;38.60;;;19.70;;
25922;SDS011;13725;51.170;4.442;2022-10-31T13:00:23;34.75;;;17.67;;
25922;SDS011;13725;51.170;4.442;2022-10-31T13:02:56;38.90;;;18.75;;
25922;SDS011;13725;51.170;4.442;2022-10-31T13:05:46;36.83;;;19.20;;
25922;SDS011;13725;51.170;4.442;2022-10-31T13:08:21;40.55;;;19.45;;
25922;SDS011;13725;51.170;4.442;2022-10-31T13:11:09;35.85;;;19.63;;
25922;SDS011;13725;51.170;4.442;2022-10-31T13:13:52;55.40;;;20.92;;
25922;SDS011;13725;51.170;4.442;2022-10-31T13:16:29;36.97;;;18.60;;
25922;SDS011;13725;51.170;4.442;2022-10-31T13:24:33;35.67;;;18.60;;
25922;SDS011;13725;51.170;4.442;2022-10-31T13:27:27;31.25;;;17.67;;
25922;SDS011;13725;51.170;4.442;2022-10-31T13:30:03;32.53;;;17.15;;
25922;SDS011;13725;51.170;4.442;2022-10-31T13:32:44;35.70;;;17.33;;
25922;SDS011;13725;51.170;4.442;2022-10-31T13:38:03;33.75;;;14.48;;
25922;SDS011;13725;51.170;4.442;2022-10-31T13:40:33;24.20;;;13.90;;
25922;SDS011;13725;51.170;4.442;2022-10-31T13:45:53;29.45;;;12.07;;
25922;SDS011;13725;51.170;4.442;2022-10-31T13:48:33;27.73;;;11.93;;
25922;SDS011;13725;51.170;4.442;2022-10-31T13:51:08;24.85;;;11.80;;
25922;SDS011;13725;51.170;4.442;2022-10-31T13:56:17;28.48;;;12.68;;
25922;SDS011;13725;51.170;4.442;2022-10-31T14:01:28;25.10;;;11.63;;
25922;SDS011;13725;51.170;4.442;2022-10-31T14:07:14;23.70;;;9.93;;
25922;SDS011;13725;51.170;4.442;2022-10-31T14:09:27;20.40;;;9.25;;
25922;SDS011;13725;51.170;4.442;2022-10-31T14:15:01;21.40;;;8.15;;
25922;SDS011;13725;51.170;4.442;2022-10-31T14:17:44;25.05;;;8.35;;
25922;SDS011;13725;51.170;4.442;2022-10-31T14:22:39;16.45;;;8.27;;
25922;SDS011;13725;51.170;4.442;2022-10-31T14:28:00;16.15;;;7.15;;
25922;SDS011;13725;51.170;4.442;2022-10-31T14:30:29;15.73;;;7.07;;
25922;SDS011;13725;51.170;4.442;2022-10-31T14:32:59;18.13;;;8.05;;
25922;SDS011;13725;51.170;4.442;2022-10-31T14:35:49;23.77;;;9.32;;
25922;SDS011;13725;51.170;4.442;2022-10-31T14:41:40;23.73;;;8.77;;
25922;SDS011;13725;51.170;4.442;2022-10-31T14:47:13;20.75;;;7.90;;
25922;SDS011;13725;51.170;4.442;2022-10-31T14:50:12;20.42;;;8.80;;
25922;SDS011;13725;51.170;4.442;2022-10-31T14:52:56;21.50;;;8.95;;
25922;SDS011;13725;51.170;4.442;2022-10-31T14:55:25;19.95;;;9.45;;
25922;SDS011;13725;51.170;4.442;2022-10-31T14:57:59;18.00;;;8.75;;
25922;SDS011;13725;51.170;4.442;2022-10-31T15:00:28;17.95;;;8.95;;
25922;SDS011;13725;51.170;4.442;2022-10-31T15:05:22;22.75;;;8.52;;
25922;SDS011;13725;51.170;4.442;2022-10-31T15:07:52;18.63;;;8.73;;
25922;SDS011;13725;51.170;4.442;2022-10-31T15:10:27;23.40;;;8.48;;
25922;SDS011;13725;51.170;4.442;2022-10-31T15:12:55;21.20;;;8.45;;
25922;SDS011;13725;51.170;4.442;2022-10-31T15:15:24;23.60;;;8.65;;
25922;SDS011;13725;51.170;4.442;2022-10-31T15:17:55;20.73;;;8.27;;
25922;SDS011;13725;51.170;4.442;2022-10-31T15:20:28;19.92;;;8.30;;
25922;SDS011;13725;51.170;4.442;2022-10-31T15:22:57;22.23;;;7.72;;
25922;SDS011;13725;51.170;4.442;2022-10-31T15:25:24;16.42;;;7.95;;
25922;SDS011;13725;51.170;4.442;2022-10-31T15:27:53;21.23;;;8.45;;
25922;SDS011;13725;51.170;4.442;2022-10-31T15:30:26;15.50;;;8.52;;
25922;SDS011;13725;51.170;4.442;2022-10-31T15:32:53;19.20;;;7.30;;
25922;SDS011;13725;51.170;4.442;2022-10-31T15:35:21;15.93;;;7.45;;
25922;SDS011;13725;51.170;4.442;2022-10-31T15:37:52;20.08;;;8.25;;
25922;SDS011;13725;51.170;4.442;2022-10-31T15:40:20;22.80;;;8.70;;
25922;SDS011;13725;51.170;4.442;2022-10-31T15:42:53;19.30;;;8.80;;
25922;SDS011;13725;51.170;4.442;2022-10-31T15:45:23;17.35;;;8.50;;
25922;SDS011;13725;51.170;4.442;2022-10-31T15:47:57;18.00;;;7.57;;
25922;SDS011;13725;51.170;4.442;2022-10-31T15:50:28;18.40;;;8.00;;
25922;SDS011;13725;51.170;4.442;2022-10-31T15:53:03;22.10;;;8.38;;
25922;SDS011;13725;51.170;4.442;2022-10-31T15:55:32;19.08;;;7.70;;
25922;SDS011;13725;51.170;4.442;2022-10-31T15:58:02;17.55;;;7.60;;
25922;SDS011;13725;51.170;4.442;2022-10-31T16:00:35;16.33;;;7.57;;
25922;SDS011;13725;51.170;4.442;2022-10-31T16:05:34;19.38;;;8.18;;
25922;SDS011;13725;51.170;4.442;2022-10-31T16:08:04;19.63;;;7.78;;
25922;SDS011;13725;51.170;4.442;2022-10-31T16:10:47;20.75;;;7.80;;
25922;SDS011;13725;51.170;4.442;2022-10-31T16:13:13;24.55;;;9.93;;
25922;SDS011;13725;51.170;4.442;2022-10-31T16:15:45;19.98;;;9.13;;
25922;SDS011;13725;51.170;4.442;2022-10-31T16:18:14;16.80;;;9.23;;
25922;SDS011;13725;51.170;4.442;2022-10-31T16:20:47;24.08;;;10.05;;
25922;SDS011;13725;51.170;4.442;2022-10-31T16:23:16;22.30;;;8.70;;
25922;SDS011;13725;51.170;4.442;2022-10-31T16:25:42;19.48;;;9.27;;
25922;SDS011;13725;51.170;4.442;2022-10-31T16:30:53;27.67;;;11.07;;
25922;SDS011;13725;51.170;4.442;2022-10-31T16:35:56;24.65;;;12.30;;
25922;SDS011;13725;51.170;4.442;2022-10-31T16:38:22;25.63;;;10.57;;
25922;SDS011;13725;51.170;4.442;2022-10-31T16:40:49;20.88;;;11.80;;
25922;SDS011;13725;51.170;4.442;2022-10-31T16:43:16;31.30;;;14.25;;
25922;SDS011;13725;51.170;4.442;2022-10-31T16:45:44;25.98;;;13.35;;
25922;SDS011;13725;51.170;4.442;2022-10-31T16:48:12;25.88;;;11.55;;
25922;SDS011;13725;51.170;4.442;2022-10-31T16:50:40;26.10;;;11.95;;
25922;SDS011;13725;51.170;4.442;2022-10-31T16:53:07;31.63;;;12.93;;
25922;SDS011;13725;51.170;4.442;2022-10-31T16:55:34;23.92;;;13.07;;
25922;SDS011;13725;51.170;4.442;2022-10-31T16:58:06;27.83;;;13.80;;
25922;SDS011;13725;51.170;4.442;2022-10-31T17:00:39;31.10;;;13.55;;
25922;SDS011;13725;51.170;4.442;2022-10-31T17:03:04;29.70;;;13.68;;
25922;SDS011;13725;51.170;4.442;2022-10-31T17:05:30;33.90;;;13.98;;
25922;SDS011;13725;51.170;4.442;2022-10-31T17:07:57;38.35;;;15.25;;
25922;SDS011;13725;51.170;4.442;2022-10-31T17:10:23;31.98;;;14.60;;
25922;SDS011;13725;51.170;4.442;2022-10-31T17:12:49;34.67;;;15.40;;
25922;SDS011;13725;51.170;4.442;2022-10-31T17:15:17;35.50;;;14.32;;
25922;SDS011;13725;51.170;4.442;2022-10-31T17:17:49;36.65;;;15.55;;
25922;SDS011;13725;51.170;4.442;2022-10-31T17:20:23;28.15;;;14.45;;